Time,TemperatureF,DewpointF,PressureIn,WindDirection,WindDirectionDegrees,WindSpeedMPH,WindSpeedGustMPH,Humidity,HourlyPrecipIn,Conditions,Clouds,dailyrainin,SoftwareType,DateUTC
2014-07-11 08:46:00,75.0,57.8,29.74,SW,225,2.7,2.7,55,0.00,,---,0.00,VWS V14.00,2014-07-11 15:46:00,
2014-07-11 08:47:00,75.0,57.8,29.74,South,180,2.2,2.9,55,0.00,,---,0.00,VWS V14.00,2014-07-11 15:47:00,
2014-07-11 08:51:00,76.3,57.9,29.74,SE,135,2.7,2.7,53,0.00,,---,0.00,VWS V14.00,2014-07-11 15:51:00,
2014-07-11 08:52:00,76.3,57.4,29.74,SE,135,2.7,3.4,52,0.00,,---,0.00,VWS V14.00,2014-07-11 15:52:00,
2014-07-11 08:54:00,76.8,57.9,29.74,SW,225,2.7,4.3,52,0.00,,---,0.00,VWS V14.00,2014-07-11 15:54:00,
2014-07-11 08:57:00,76.5,57.0,29.74,SE,135,4.0,4.0,51,0.00,,---,0.00,VWS V14.00,2014-07-11 15:57:00,
2014-07-11 08:58:00,76.5,56.5,29.74,SSW,202,2.5,4.0,50,0.00,,---,0.00,VWS V14.00,2014-07-11 15:58:00,
2014-07-11 09:00:00,76.6,56.6,29.74,SSW,202,0.0,3.6,50,0.00,,---,0.00,VWS V14.00,2014-07-11 16:00:00,
2014-07-11 09:02:00,76.6,56.6,29.74,SW,225,2.5,3.1,50,0.00,,---,0.00,VWS V14.00,2014-07-11 16:02:00,
2014-07-11 09:03:00,76.5,55.9,29.74,SW,225,2.2,2.9,49,0.00,,---,0.00,VWS V14.00,2014-07-11 16:03:00,
2014-07-11 09:04:00,76.6,56.1,29.74,SSE,158,0.0,2.2,49,0.00,,---,0.00,VWS V14.00,2014-07-11 16:04:00,
2014-07-11 09:05:00,76.8,56.2,29.74,SSE,158,2.7,3.1,49,0.00,,---,0.00,VWS V14.00,2014-07-11 16:05:00,
2014-07-11 09:11:00,77.7,56.5,29.74,SSE,158,4.9,4.9,48,0.00,,---,0.00,VWS V14.00,2014-07-11 16:11:00,
2014-07-11 09:12:00,78.1,56.8,29.74,SSE,158,4.9,4.9,48,0.00,,---,0.00,VWS V14.00,2014-07-11 16:12:00,
2014-07-11 09:13:00,78.1,56.8,29.74,SSE,158,3.8,4.9,48,0.00,,---,0.00,VWS V14.00,2014-07-11 16:13:00,
2014-07-11 09:14:00,78.1,56.8,29.74,South,180,3.8,3.8,48,0.00,,---,0.00,VWS V14.00,2014-07-11 16:14:00,
2014-07-11 09:16:00,78.3,56.4,29.74,SSW,202,4.3,4.3,47,0.00,,---,0.00,VWS V14.00,2014-07-11 16:16:00,
2014-07-11 09:18:00,78.6,56.7,29.74,SSW,202,4.3,4.3,47,0.00,,---,0.00,VWS V14.00,2014-07-11 16:18:00,
2014-07-11 09:19:00,78.6,56.7,29.74,SSW,202,4.3,4.3,47,0.00,,---,0.00,VWS V14.00,2014-07-11 16:19:00,
2014-07-11 09:20:00,78.1,54.4,29.74,SSW,202,4.3,4.3,44,0.00,,---,0.00,VWS V14.00,2014-07-11 16:20:00,
2014-07-11 09:21:00,78.3,55.2,29.74,SSW,202,4.3,4.3,45,0.00,,---,0.00,VWS V14.00,2014-07-11 16:21:00,
2014-07-11 09:24:00,77.7,54.1,29.74,SSE,158,4.3,4.3,44,0.00,,---,0.00,VWS V14.00,2014-07-11 16:24:00,
2014-07-11 09:26:00,77.5,53.9,29.74,SSE,158,4.9,4.9,44,0.00,,---,0.00,VWS V14.00,2014-07-11 16:26:00,
2014-07-11 09:28:00,78.1,54.4,29.74,SSE,158,4.9,4.9,44,0.00,,---,0.00,VWS V14.00,2014-07-11 16:28:00,
2014-07-11 09:29:00,78.3,54.6,29.74,SSE,158,4.9,4.9,44,0.00,,---,0.00,VWS V14.00,2014-07-11 16:29:00,
2014-07-11 09:30:00,78.3,54.6,29.74,SSE,158,1.6,4.9,44,0.00,,---,0.00,VWS V14.00,2014-07-11 16:30:00,
2014-07-11 09:35:00,79.2,56.0,29.74,SSE,158,1.6,1.6,45,0.00,,---,0.00,VWS V14.00,2014-07-11 16:35:00,
2014-07-11 09:36:00,78.8,55.1,29.74,SSE,158,1.6,1.6,44,0.00,,---,0.00,VWS V14.00,2014-07-11 16:36:00,
2014-07-11 09:37:00,78.6,55.5,29.74,SSE,158,1.6,1.6,45,0.00,,---,0.00,VWS V14.00,2014-07-11 16:37:00,
2014-07-11 09:40:00,79.2,56.0,29.74,SE,135,1.3,1.6,45,0.00,,---,0.00,VWS V14.00,2014-07-11 16:40:00,
2014-07-11 09:41:00,79.3,54.9,29.74,South,180,5.6,6.9,43,0.00,,---,0.00,VWS V14.00,2014-07-11 16:41:00,
2014-07-11 09:42:00,79.3,54.9,29.74,SSE,158,6.3,6.3,43,0.00,,---,0.00,VWS V14.00,2014-07-11 16:42:00,
2014-07-11 09:43:00,79.3,54.9,29.74,SE,135,4.9,6.3,43,0.00,,---,0.00,VWS V14.00,2014-07-11 16:43:00,
2014-07-11 09:46:00,79.9,55.4,29.74,South,180,3.8,3.8,43,0.00,,---,0.00,VWS V14.00,2014-07-11 16:46:00,
2014-07-11 09:48:00,79.9,55.4,29.74,SSW,202,2.2,2.2,43,0.00,,---,0.00,VWS V14.00,2014-07-11 16:48:00,
2014-07-11 09:51:00,79.9,55.4,29.74,South,180,2.9,2.9,43,0.00,,---,0.00,VWS V14.00,2014-07-11 16:51:00,
2014-07-11 09:52:00,79.9,55.4,29.74,South,180,0.9,3.4,43,0.00,,---,0.00,VWS V14.00,2014-07-11 16:52:00,
2014-07-11 09:53:00,80.1,55.6,29.74,SE,135,0.0,3.4,43,0.00,,---,0.00,VWS V14.00,2014-07-11 16:53:00,
2014-07-11 09:54:00,80.2,55.7,29.74,ESE,112,0.9,1.3,43,0.00,,---,0.00,VWS V14.00,2014-07-11 16:54:00,
2014-07-11 09:56:00,80.6,56.1,29.74,ESE,112,4.3,4.3,43,0.00,,---,0.00,VWS V14.00,2014-07-11 16:56:00,
2014-07-11 09:57:00,80.6,55.4,29.74,SE,135,2.7,4.7,42,0.00,,---,0.00,VWS V14.00,2014-07-11 16:57:00,
2014-07-11 09:58:00,80.2,55.1,29.74,SE,135,6.0,7.4,42,0.00,,---,0.00,VWS V14.00,2014-07-11 16:58:00,
2014-07-11 09:59:00,80.4,55.2,29.74,ESE,112,1.6,6.0,42,0.00,,---,0.00,VWS V14.00,2014-07-11 16:59:00,
2014-07-11 10:01:00,80.1,54.3,29.74,SE,135,3.6,5.8,41,0.00,,---,0.00,VWS V14.00,2014-07-11 17:01:00,
2014-07-11 10:03:00,80.2,54.4,29.74,SE,135,2.0,2.0,41,0.00,,---,0.00,VWS V14.00,2014-07-11 17:03:00,
2014-07-11 10:04:00,80.1,54.3,29.74,South,180,2.7,3.6,41,0.00,,---,0.00,VWS V14.00,2014-07-11 17:04:00,
2014-07-11 10:07:00,80.6,54.8,29.74,SSE,158,4.7,5.6,41,0.00,,---,0.00,VWS V14.00,2014-07-11 17:07:00,
2014-07-11 10:08:00,80.6,54.8,29.74,SE,135,4.3,4.7,41,0.00,,---,0.00,VWS V14.00,2014-07-11 17:08:00,
2014-07-11 10:09:00,80.6,54.8,29.74,SE,135,3.1,4.3,41,0.00,,---,0.00,VWS V14.00,2014-07-11 17:09:00,
2014-07-11 10:10:00,80.8,54.9,29.74,SSW,202,0.9,3.8,41,0.00,,---,0.00,VWS V14.00,2014-07-11 17:10:00,
2014-07-11 10:11:00,80.8,54.9,29.74,SE,135,1.1,3.4,41,0.00,,---,0.00,VWS V14.00,2014-07-11 17:11:00,
2014-07-11 10:12:00,81.0,55.1,29.74,SE,135,3.1,4.7,41,0.00,,---,0.00,VWS V14.00,2014-07-11 17:12:00,
2014-07-11 10:16:00,81.3,55.4,29.74,SW,225,1.6,2.9,41,0.00,,---,0.00,VWS V14.00,2014-07-11 17:16:00,
2014-07-11 10:17:00,81.5,55.5,29.74,SSW,202,1.6,2.5,41,0.00,,---,0.00,VWS V14.00,2014-07-11 17:17:00,
2014-07-11 10:18:00,81.5,55.5,29.74,ENE,68,1.3,2.5,41,0.00,,---,0.00,VWS V14.00,2014-07-11 17:18:00,
2014-07-11 10:19:00,81.5,54.9,29.74,SE,135,5.4,5.4,40,0.00,,---,0.00,VWS V14.00,2014-07-11 17:19:00,
2014-07-11 10:23:00,81.9,55.2,29.74,SSW,202,1.3,2.2,40,0.00,,---,0.00,VWS V14.00,2014-07-11 17:23:00,
2014-07-11 10:24:00,82.0,55.4,29.74,South,180,2.9,4.9,40,0.00,,---,0.00,VWS V14.00,2014-07-11 17:24:00,
2014-07-11 10:25:00,81.9,55.2,29.74,South,180,0.9,3.1,40,0.00,,---,0.00,VWS V14.00,2014-07-11 17:25:00,
2014-07-11 10:27:00,82.2,55.5,29.74,SE,135,2.9,5.4,40,0.00,,---,0.00,VWS V14.00,2014-07-11 17:27:00,
2014-07-11 10:28:00,82.4,55.7,29.74,SE,135,1.6,2.9,40,0.00,,---,0.00,VWS V14.00,2014-07-11 17:28:00,
2014-07-11 10:29:00,82.6,55.8,29.74,South,180,4.3,4.9,40,0.00,,---,0.00,VWS V14.00,2014-07-11 17:29:00,
2014-07-11 10:34:00,82.4,54.3,29.74,SE,135,2.0,4.3,38,0.00,,---,0.00,VWS V14.00,2014-07-11 17:34:00,
2014-07-11 10:35:00,81.9,54.5,29.74,South,180,2.5,2.7,39,0.00,,---,0.00,VWS V14.00,2014-07-11 17:35:00,
2014-07-11 10:36:00,81.7,54.3,29.74,West,270,0.9,2.5,39,0.00,,---,0.00,VWS V14.00,2014-07-11 17:36:00,
2014-07-11 10:37:00,81.5,54.2,29.74,WSW,248,0.0,0.9,39,0.00,,---,0.00,VWS V14.00,2014-07-11 17:37:00,
2014-07-11 10:38:00,81.3,54.7,29.74,South,180,0.9,1.1,40,0.00,,---,0.00,VWS V14.00,2014-07-11 17:38:00,
2014-07-11 10:40:00,81.5,54.9,29.74,SSE,158,4.0,4.0,40,0.00,,---,0.00,VWS V14.00,2014-07-11 17:40:00,
2014-07-11 10:41:00,81.7,55.0,29.74,South,180,3.4,4.0,40,0.00,,---,0.00,VWS V14.00,2014-07-11 17:41:00,
2014-07-11 10:42:00,81.9,55.2,29.74,East,90,2.5,3.4,40,0.00,,---,0.00,VWS V14.00,2014-07-11 17:42:00,
2014-07-11 10:43:00,82.2,55.5,29.74,South,180,3.8,3.8,40,0.00,,---,0.00,VWS V14.00,2014-07-11 17:43:00,
2014-07-11 10:47:00,83.1,54.9,29.74,SE,135,4.7,4.9,38,0.00,,---,0.00,VWS V14.00,2014-07-11 17:47:00,
2014-07-11 10:49:00,82.9,54.0,29.74,SE,135,0.0,3.4,37,0.00,,---,0.00,VWS V14.00,2014-07-11 17:49:00,
2014-07-11 10:54:00,83.1,54.9,29.74,SE,135,1.1,1.3,38,0.00,,---,0.00,VWS V14.00,2014-07-11 17:54:00,
2014-07-11 10:55:00,83.3,54.3,29.74,SSE,158,2.7,4.9,37,0.00,,---,0.00,VWS V14.00,2014-07-11 17:55:00,
2014-07-11 10:57:00,84.2,55.1,29.74,SE,135,0.0,3.1,37,0.00,,---,0.00,VWS V14.00,2014-07-11 17:57:00,
2014-07-11 10:59:00,84.6,55.5,29.74,SW,225,0.0,0.9,37,0.00,,---,0.00,VWS V14.00,2014-07-11 17:59:00,
2014-07-11 11:01:00,84.9,55.8,29.74,SE,135,1.6,1.6,37,0.00,,---,0.00,VWS V14.00,2014-07-11 18:01:00,
2014-07-11 11:03:00,84.9,55.0,29.74,South,180,3.8,3.8,36,0.00,,---,0.00,VWS V14.00,2014-07-11 18:03:00,
2014-07-11 11:05:00,85.1,54.4,29.74,WSW,248,0.0,0.9,35,0.00,,---,0.00,VWS V14.00,2014-07-11 18:05:00,
2014-07-11 11:06:00,85.3,55.3,29.74,SE,135,2.0,2.7,36,0.00,,---,0.00,VWS V14.00,2014-07-11 18:06:00,
2014-07-11 11:07:00,85.1,55.2,29.74,SSE,158,3.6,3.6,36,0.00,,---,0.00,VWS V14.00,2014-07-11 18:07:00,
2014-07-11 11:10:00,85.1,55.2,29.74,SSE,158,3.8,4.3,36,0.00,,---,0.00,VWS V14.00,2014-07-11 18:10:00,
2014-07-11 11:11:00,85.1,54.4,29.74,SSE,158,2.9,3.8,35,0.00,,---,0.00,VWS V14.00,2014-07-11 18:11:00,
2014-07-11 11:13:00,85.6,55.7,29.74,West,270,0.0,0.0,36,0.00,,---,0.00,VWS V14.00,2014-07-11 18:13:00,
2014-07-11 11:14:00,85.3,55.3,29.74,NNW,338,0.0,2.7,36,0.00,,---,0.00,VWS V14.00,2014-07-11 18:14:00,
2014-07-11 11:15:00,85.3,55.3,29.74,South,180,0.0,1.6,36,0.00,,---,0.00,VWS V14.00,2014-07-11 18:15:00,
2014-07-11 11:16:00,85.3,56.1,29.74,NE,45,3.6,3.6,37,0.00,,---,0.00,VWS V14.00,2014-07-11 18:16:00,
2014-07-11 11:18:00,85.3,55.3,29.74,East,90,2.7,3.8,36,0.00,,---,0.00,VWS V14.00,2014-07-11 18:18:00,
2014-07-11 11:19:00,85.3,55.3,29.74,ENE,68,1.1,3.4,36,0.00,,---,0.00,VWS V14.00,2014-07-11 18:19:00,
2014-07-11 11:21:00,85.1,55.2,29.74,SE,135,6.0,6.0,36,0.00,,---,0.00,VWS V14.00,2014-07-11 18:21:00,
2014-07-11 11:24:00,85.6,55.7,29.74,ESE,112,2.5,4.3,36,0.00,,---,0.00,VWS V14.00,2014-07-11 18:24:00,
2014-07-11 11:25:00,85.8,55.0,29.74,SE,135,1.3,2.9,35,0.00,,---,0.00,VWS V14.00,2014-07-11 18:25:00,
2014-07-11 11:27:00,86.0,55.2,29.74,SE,135,3.8,5.8,35,0.00,,---,0.00,VWS V14.00,2014-07-11 18:27:00,
2014-07-11 11:28:00,85.8,55.0,29.74,SSE,158,4.3,5.6,35,0.00,,---,0.00,VWS V14.00,2014-07-11 18:28:00,
2014-07-11 11:31:00,86.2,54.5,29.74,South,180,2.7,3.6,34,0.00,,---,0.00,VWS V14.00,2014-07-11 18:31:00,
2014-07-11 11:33:00,86.7,55.8,29.74,South,180,2.5,5.4,35,0.00,,---,0.00,VWS V14.00,2014-07-11 18:33:00,
2014-07-11 11:36:00,86.9,55.2,29.74,SW,225,0.9,1.3,34,0.00,,---,0.00,VWS V14.00,2014-07-11 18:36:00,
2014-07-11 11:37:00,86.7,55.0,29.74,ENE,68,3.4,3.4,34,0.00,,---,0.00,VWS V14.00,2014-07-11 18:37:00,
2014-07-11 11:38:00,86.7,54.2,29.74,East,90,1.3,3.6,33,0.00,,---,0.00,VWS V14.00,2014-07-11 18:38:00,
2014-07-11 11:39:00,87.1,54.5,29.74,SE,135,0.0,2.9,33,0.00,,---,0.00,VWS V14.00,2014-07-11 18:39:00,
2014-07-11 11:41:00,87.6,55.8,29.74,NE,45,0.0,0.9,34,0.00,,---,0.00,VWS V14.00,2014-07-11 18:41:00,
2014-07-11 11:44:00,87.3,53.8,29.74,NE,45,2.5,2.5,32,0.00,,---,0.00,VWS V14.00,2014-07-11 18:44:00,
2014-07-11 11:45:00,87.4,54.0,29.74,South,180,0.0,2.5,32,0.00,,---,0.00,VWS V14.00,2014-07-11 18:45:00,
2014-07-11 11:46:00,87.4,54.8,29.74,South,180,3.8,3.8,33,0.00,,---,0.00,VWS V14.00,2014-07-11 18:46:00,
2014-07-11 11:49:00,88.2,55.5,29.74,SE,135,2.0,2.0,33,0.00,,---,0.00,VWS V14.00,2014-07-11 18:49:00,
2014-07-11 11:52:00,88.3,55.6,29.74,South,180,0.0,2.2,33,0.00,,---,0.00,VWS V14.00,2014-07-11 18:52:00,
2014-07-11 11:53:00,88.7,55.9,29.74,SE,135,6.0,6.5,33,0.00,,---,0.00,VWS V14.00,2014-07-11 18:53:00,
2014-07-11 11:55:00,88.7,55.1,29.74,South,180,2.0,4.5,32,0.00,,---,0.00,VWS V14.00,2014-07-11 18:55:00,
2014-07-11 11:56:00,88.7,55.1,29.74,SSE,158,5.4,5.8,32,0.00,,---,0.00,VWS V14.00,2014-07-11 18:56:00,
2014-07-11 11:58:00,88.5,54.9,29.74,SW,225,2.9,4.3,32,0.00,,---,0.00,VWS V14.00,2014-07-11 18:58:00,
2014-07-11 12:03:00,88.7,54.2,29.74,SE,135,1.6,3.4,31,0.00,,---,0.00,VWS V14.00,2014-07-11 19:03:00,
2014-07-11 12:04:00,88.7,54.2,29.74,SE,135,2.7,2.7,31,0.00,,---,0.00,VWS V14.00,2014-07-11 19:04:00,
2014-07-11 12:05:00,88.7,54.2,29.74,East,90,2.9,3.1,31,0.00,,---,0.00,VWS V14.00,2014-07-11 19:05:00,
2014-07-11 12:09:00,88.7,55.9,29.74,SSW,202,2.0,4.9,33,0.00,,---,0.00,VWS V14.00,2014-07-11 19:09:00,
2014-07-11 12:10:00,88.7,55.9,29.74,WSW,248,3.1,3.1,33,0.00,,---,0.00,VWS V14.00,2014-07-11 19:10:00,
2014-07-11 12:11:00,88.9,56.1,29.74,South,180,3.1,3.4,33,0.00,,---,0.00,VWS V14.00,2014-07-11 19:11:00,
2014-07-11 12:13:00,89.2,56.4,29.74,West,270,3.1,3.1,33,0.00,,---,0.00,VWS V14.00,2014-07-11 19:13:00,
2014-07-11 12:14:00,89.1,55.4,29.74,South,180,2.7,3.8,32,0.00,,---,0.00,VWS V14.00,2014-07-11 19:14:00,
2014-07-11 12:17:00,89.1,56.2,29.74,South,180,3.8,6.5,33,0.00,,---,0.00,VWS V14.00,2014-07-11 19:17:00,
2014-07-11 12:18:00,88.9,55.2,29.74,ENE,68,2.7,3.8,32,0.00,,---,0.00,VWS V14.00,2014-07-11 19:18:00,
2014-07-11 12:20:00,88.7,54.2,29.74,SSE,158,4.0,4.0,31,0.00,,---,0.00,VWS V14.00,2014-07-11 19:20:00,
2014-07-11 12:24:00,88.9,56.1,29.71,SW,225,2.2,2.2,33,0.00,,---,0.00,VWS V14.00,2014-07-11 19:24:00,
2014-07-11 12:26:00,88.7,55.1,29.71,SE,135,5.6,5.6,32,0.00,,---,0.00,VWS V14.00,2014-07-11 19:26:00,
2014-07-11 12:27:00,88.7,55.1,29.71,SSE,158,3.8,5.6,32,0.00,,---,0.00,VWS V14.00,2014-07-11 19:27:00,
2014-07-11 12:28:00,88.5,54.9,29.71,SE,135,3.6,4.0,32,0.00,,---,0.00,VWS V14.00,2014-07-11 19:28:00,
2014-07-11 12:29:00,88.5,54.9,29.71,SE,135,2.7,3.6,32,0.00,,---,0.00,VWS V14.00,2014-07-11 19:29:00,
2014-07-11 12:30:00,88.7,55.1,29.71,South,180,2.7,2.7,32,0.00,,---,0.00,VWS V14.00,2014-07-11 19:30:00,
2014-07-11 12:33:00,88.7,55.1,29.71,West,270,0.0,1.3,32,0.00,,---,0.00,VWS V14.00,2014-07-11 19:33:00,
2014-07-11 12:34:00,88.9,55.2,29.71,WNW,292,0.0,0.0,32,0.00,,---,0.00,VWS V14.00,2014-07-11 19:34:00,
2014-07-11 12:36:00,88.7,55.1,29.71,WNW,292,2.7,2.7,32,0.00,,---,0.00,VWS V14.00,2014-07-11 19:36:00,
2014-07-11 12:38:00,88.9,55.2,29.71,SSE,158,1.6,3.1,32,0.00,,---,0.00,VWS V14.00,2014-07-11 19:38:00,
2014-07-11 12:40:00,88.5,55.8,29.71,SE,135,2.5,3.6,33,0.00,,---,0.00,VWS V14.00,2014-07-11 19:40:00,
2014-07-11 12:41:00,88.5,54.9,29.71,SE,135,3.6,3.8,32,0.00,,---,0.00,VWS V14.00,2014-07-11 19:41:00,
2014-07-11 12:43:00,88.7,55.1,29.71,SSE,158,2.7,2.7,32,0.00,,---,0.00,VWS V14.00,2014-07-11 19:43:00,
2014-07-11 12:46:00,88.7,55.9,29.71,ENE,68,0.0,4.0,33,0.00,,---,0.00,VWS V14.00,2014-07-11 19:46:00,
2014-07-11 12:47:00,88.7,55.9,29.71,East,90,0.0,1.6,33,0.00,,---,0.00,VWS V14.00,2014-07-11 19:47:00,
2014-07-11 12:49:00,88.7,55.9,29.71,SSE,158,5.8,8.5,33,0.00,,---,0.00,VWS V14.00,2014-07-11 19:49:00,
2014-07-11 12:51:00,88.5,56.6,29.71,SW,225,1.1,6.3,34,0.00,,---,0.00,VWS V14.00,2014-07-11 19:51:00,
2014-07-11 12:53:00,88.7,55.9,29.71,South,180,0.9,3.1,33,0.00,,---,0.00,VWS V14.00,2014-07-11 19:53:00,
2014-07-11 12:56:00,88.3,55.6,29.71,SE,135,3.6,5.6,33,0.00,,---,0.00,VWS V14.00,2014-07-11 19:56:00,
2014-07-11 12:57:00,88.2,54.6,29.71,East,90,2.5,3.6,32,0.00,,---,0.00,VWS V14.00,2014-07-11 19:57:00,
2014-07-11 13:00:00,88.5,55.8,29.71,SSE,158,2.7,4.3,33,0.00,,---,0.00,VWS V14.00,2014-07-11 20:00:00,
2014-07-11 13:01:00,88.3,54.8,29.71,South,180,2.9,4.7,32,0.00,,---,0.00,VWS V14.00,2014-07-11 20:01:00,
2014-07-11 13:02:00,88.3,54.8,29.71,WSW,248,2.2,3.4,32,0.00,,---,0.00,VWS V14.00,2014-07-11 20:02:00,
2014-07-11 13:06:00,88.7,55.1,29.71,SE,135,2.5,4.7,32,0.00,,---,0.00,VWS V14.00,2014-07-11 20:06:00,
2014-07-11 13:07:00,88.9,55.2,29.71,SE,135,1.3,2.5,32,0.00,,---,0.00,VWS V14.00,2014-07-11 20:07:00,
2014-07-11 13:10:00,88.9,55.2,29.71,SSE,158,5.4,6.5,32,0.00,,---,0.00,VWS V14.00,2014-07-11 20:10:00,
2014-07-11 13:11:00,88.9,54.4,29.71,SSE,158,3.4,6.0,31,0.00,,---,0.00,VWS V14.00,2014-07-11 20:11:00,
2014-07-11 13:12:00,88.9,54.4,29.71,ESE,112,3.8,4.7,31,0.00,,---,0.00,VWS V14.00,2014-07-11 20:12:00,